createdAt,value
2018-07-17T00:00:20.782Z,0
2018-07-17T00:01:30.849Z,0
2018-07-17T00:02:43.724Z,0
2018-07-17T00:03:53.959Z,0
2018-07-17T00:05:04.055Z,0
2018-07-17T00:06:13.877Z,0
2018-07-17T00:07:23.953Z,0
2018-07-17T00:08:34.079Z,0
2018-07-17T00:09:44.129Z,0
2018-07-17T00:10:54.419Z,0
2018-07-17T00:12:04.489Z,0
2018-07-17T00:13:14.559Z,0
2018-07-17T00:14:24.668Z,0
2018-07-17T00:15:34.733Z,0
2018-07-17T00:16:44.804Z,0
2018-07-17T00:17:54.892Z,0
2018-07-17T00:19:04.990Z,0
2018-07-17T00:20:15.072Z,0
2018-07-17T00:21:25.150Z,0
2018-07-17T00:22:35.226Z,0
2018-07-17T00:23:45.052Z,0
2018-07-17T00:24:55.121Z,0
2018-07-17T00:26:05.935Z,0
2018-07-17T00:27:16.009Z,0
2018-07-17T00:28:26.125Z,0
2018-07-17T00:29:36.202Z,0
2018-07-17T00:30:46.276Z,0
2018-07-17T00:31:56.355Z,0
2018-07-17T00:33:06.442Z,0
2018-07-17T00:34:16.264Z,0
2018-07-17T00:35:26.330Z,0
2018-07-17T00:36:36.152Z,0
2018-07-17T00:37:46.228Z,0
2018-07-17T00:38:56.311Z,0
2018-07-17T00:40:06.391Z,0
2018-07-17T00:41:16.463Z,0
2018-07-17T00:42:26.524Z,0
2018-07-17T00:43:36.440Z,0
2018-07-17T00:44:46.498Z,0
2018-07-17T00:45:56.575Z,0
2018-07-17T00:47:06.381Z,0
2018-07-17T00:48:16.444Z,0
2018-07-17T00:49:26.516Z,0
2018-07-17T00:50:36.589Z,0
2018-07-17T00:51:46.393Z,0
2018-07-17T00:52:56.480Z,0
2018-07-17T00:54:06.551Z,0
2018-07-17T00:55:16.673Z,0
2018-07-17T00:56:26.722Z,0
2018-07-17T00:57:36.793Z,0
2018-07-17T00:58:46.859Z,0
2018-07-17T00:59:56.932Z,0
2018-07-17T01:01:07.411Z,0
2018-07-17T01:02:17.705Z,0
2018-07-17T01:03:27.778Z,0
2018-07-17T01:04:37.322Z,0
2018-07-17T01:05:47.418Z,0
2018-07-17T01:06:57.743Z,0
2018-07-17T01:08:07.656Z,0
2018-07-17T01:09:17.466Z,0
2018-07-17T01:10:27.278Z,0
2018-07-17T01:11:37.357Z,0
2018-07-17T01:12:47.430Z,0
2018-07-17T01:13:57.492Z,0
2018-07-17T01:15:07.304Z,0
2018-07-17T01:16:17.374Z,0
2018-07-17T01:17:27.438Z,0
2018-07-17T01:18:37.509Z,0
2018-07-17T01:19:47.579Z,0
2018-07-17T01:20:57.652Z,0
2018-07-17T01:22:07.728Z,0
2018-07-17T01:23:17.554Z,0
2018-07-17T01:24:27.404Z,0
2018-07-17T01:25:37.468Z,0
2018-07-17T01:26:47.279Z,0
2018-07-17T01:27:57.352Z,0
2018-07-17T01:29:07.461Z,0
2018-07-17T01:30:17.573Z,0
2018-07-17T01:31:27.638Z,0
2018-07-17T01:32:37.452Z,0
2018-07-17T01:33:47.530Z,0
2018-07-17T01:34:57.323Z,0
2018-07-17T01:36:07.412Z,0
2018-07-17T01:37:17.486Z,0
2018-07-17T01:38:27.834Z,0
2018-07-17T01:39:37.759Z,0
2018-07-17T01:40:47.578Z,0
2018-07-17T01:41:57.710Z,0
2018-07-17T01:43:08.131Z,0
2018-07-17T01:44:17.818Z,0
2018-07-17T01:45:27.652Z,0
2018-07-17T01:46:37.474Z,0
2018-07-17T01:47:47.551Z,0
2018-07-17T01:48:57.349Z,0
2018-07-17T01:50:07.147Z,0
2018-07-17T01:51:17.227Z,0
2018-07-17T01:52:27.332Z,0
2018-07-17T01:53:37.403Z,0
2018-07-17T01:54:47.468Z,0
2018-07-17T01:55:57.282Z,0
2018-07-17T01:57:07.342Z,0
2018-07-17T01:58:17.420Z,0
2018-07-17T01:59:27.592Z,0
2018-07-17T02:00:37.399Z,0
2018-07-17T02:01:47.468Z,0
2018-07-17T02:02:57.528Z,0
2018-07-17T02:04:07.589Z,0
2018-07-17T02:05:17.670Z,0
2018-07-17T02:06:27.800Z,0
2018-07-17T02:07:37.870Z,0
2018-07-17T02:08:47.953Z,0
2018-07-17T02:09:58.033Z,0
2018-07-17T02:11:08.100Z,0
2018-07-17T02:12:18.171Z,0
2018-07-17T02:13:27.973Z,0
2018-07-17T02:14:38.043Z,0
2018-07-17T02:15:48.113Z,0
2018-07-17T02:16:58.178Z,0
2018-07-17T02:18:08.265Z,0
2018-07-17T02:19:18.355Z,0
2018-07-17T02:20:28.440Z,0
2018-07-17T02:21:38.266Z,0
2018-07-17T02:22:48.082Z,0
2018-07-17T02:23:58.160Z,0
2018-07-17T02:25:07.967Z,0
2018-07-17T02:26:18.049Z,0
2018-07-17T02:27:27.875Z,0
2018-07-17T02:28:37.668Z,0
2018-07-17T02:29:47.726Z,0
2018-07-17T02:30:57.563Z,0
2018-07-17T02:32:07.663Z,0
2018-07-17T02:33:17.760Z,0
2018-07-17T02:34:27.837Z,0
2018-07-17T02:35:37.643Z,0
2018-07-17T02:36:47.725Z,4
2018-07-17T02:37:57.777Z,4
2018-07-17T02:39:07.873Z,0
2018-07-17T02:40:17.957Z,0
2018-07-17T02:41:28.045Z,4
2018-07-17T02:42:37.932Z,4
2018-07-17T02:43:47.994Z,4
2018-07-17T02:44:57.802Z,4
2018-07-17T02:46:07.879Z,4
2018-07-17T02:47:17.710Z,8
2018-07-17T02:48:27.804Z,8
2018-07-17T02:49:37.610Z,8
2018-07-17T02:50:47.683Z,12
2018-07-17T02:51:57.765Z,12
2018-07-17T02:53:07.840Z,16
2018-07-17T02:54:17.931Z,16
2018-07-17T02:55:28.013Z,16
2018-07-17T02:56:38.149Z,20
2018-07-17T02:57:48.221Z,28
2018-07-17T02:58:58.293Z,28
2018-07-17T03:00:08.115Z,32
2018-07-17T03:01:18.184Z,36
2018-07-17T03:02:28.255Z,40
2018-07-17T03:35:09.372Z,340
2018-07-17T03:36:19.221Z,356
2018-07-17T03:37:29.099Z,376
2018-07-17T03:38:39.164Z,396
2018-07-17T03:39:49.216Z,420
2018-07-17T03:40:59.330Z,456
2018-07-17T03:42:09.395Z,504
2018-07-17T03:43:19.462Z,560
2018-07-17T03:44:28.995Z,616
2018-07-17T03:45:39.054Z,672
2018-07-17T03:46:49.135Z,736
2018-07-17T03:47:59.250Z,796
2018-07-17T03:49:09.070Z,840
2018-07-17T03:50:19.173Z,876
2018-07-17T03:51:29.242Z,900
2018-07-17T03:52:39.305Z,916
2018-07-17T03:53:49.114Z,920
2018-07-17T03:54:59.188Z,908
2018-07-17T03:56:09.283Z,904
2018-07-17T03:57:19.350Z,900
2018-07-17T03:58:29.406Z,904
2018-07-17T03:59:39.467Z,908
2018-07-17T04:00:49.531Z,904
2018-07-17T04:01:59.599Z,908
2018-07-17T04:03:09.689Z,912
2018-07-17T04:04:20.192Z,916
2018-07-17T04:05:30.518Z,920
2018-07-17T04:06:40.588Z,924
2018-07-17T04:07:50.415Z,940
2018-07-17T04:09:00.241Z,956
2018-07-17T04:10:10.046Z,972
2018-07-17T04:11:20.125Z,992
2018-07-17T04:12:29.936Z,1016
2018-07-17T04:13:40.246Z,1040
2018-07-17T04:14:49.811Z,1064
2018-07-17T04:15:59.897Z,1084
2018-07-17T04:17:09.976Z,1100
2018-07-17T04:18:20.072Z,1116
2018-07-17T04:19:30.200Z,1128
2018-07-17T04:20:40.282Z,1144
2018-07-17T04:21:50.149Z,1156
2018-07-17T04:22:59.695Z,1168
2018-07-17T04:24:09.756Z,1184
2018-07-17T04:25:19.568Z,1200
2018-07-17T04:26:29.368Z,1236
2018-07-17T04:27:38.922Z,1280
2018-07-17T04:28:48.979Z,1324
2018-07-17T04:29:59.094Z,1364
2018-07-17T04:31:09.165Z,1400
2018-07-17T04:32:19.242Z,1448
2018-07-17T04:33:29.320Z,1480
2018-07-17T04:34:39.130Z,1520
2018-07-17T04:35:49.211Z,1548
2018-07-17T04:36:59.268Z,1572
2018-07-17T04:38:09.334Z,1592
2018-07-17T04:39:19.425Z,1624
2018-07-17T04:40:29.228Z,1668
2018-07-17T04:41:39.299Z,1740
2018-07-17T04:42:49.366Z,1868
2018-07-17T04:43:59.199Z,2604
2018-07-17T04:45:09.364Z,6852
2018-07-17T04:46:19.537Z,3872
2018-07-17T04:47:29.351Z,3696
2018-07-17T04:48:39.433Z,4532
2018-07-17T04:49:49.230Z,5292
2018-07-17T04:50:59.314Z,3228
2018-07-17T04:52:09.124Z,3144
2018-07-17T04:53:18.966Z,5184
2018-07-17T04:54:29.023Z,5496
2018-07-17T04:55:38.860Z,4772
2018-07-17T04:56:49.144Z,5864
2018-07-17T04:57:59.199Z,5820
2018-07-17T04:59:09.066Z,6068
2018-07-17T05:00:18.887Z,4476
2018-07-17T05:01:29.109Z,3724
2018-07-17T05:02:39.373Z,3692
2018-07-17T05:03:49.456Z,3324
2018-07-17T05:04:59.519Z,3288
2018-07-17T05:06:09.608Z,3272
2018-07-17T05:07:19.683Z,3380
2018-07-17T05:08:29.748Z,3236
2018-07-17T05:09:39.824Z,3100
2018-07-17T05:10:49.895Z,3072
2018-07-17T05:11:59.501Z,3140
2018-07-17T05:13:09.486Z,3208
2018-07-17T05:14:19.307Z,3232
2018-07-17T05:15:28.838Z,3268
2018-07-17T05:16:39.084Z,3272
2018-07-17T05:17:48.911Z,3220
2018-07-17T05:18:58.460Z,3284
2018-07-17T05:20:08.368Z,3248
2018-07-17T05:21:18.535Z,3280
2018-07-17T05:22:28.654Z,3296
2018-07-17T05:23:38.765Z,3268
2018-07-17T05:24:48.829Z,3208
2018-07-17T05:25:58.683Z,3152
2018-07-17T05:27:08.750Z,3136
2018-07-17T05:28:18.822Z,3244
2018-07-17T05:29:28.893Z,3312
2018-07-17T05:30:38.960Z,3380
2018-07-17T05:31:49.027Z,3228
2018-07-17T05:32:59.108Z,3168
2018-07-17T05:34:09.211Z,3208
2018-07-17T05:35:19.831Z,3168
2018-07-17T05:36:29.670Z,3172
2018-07-17T05:37:39.736Z,3172
2018-07-17T05:38:49.554Z,3200
2018-07-17T05:39:59.606Z,3268
2018-07-17T05:41:09.681Z,3376
2018-07-17T05:42:19.767Z,3516
2018-07-17T05:43:29.908Z,3668
2018-07-17T05:44:39.992Z,3844
2018-07-17T05:45:50.069Z,4088
2018-07-17T05:47:00.161Z,4300
2018-07-17T05:48:09.987Z,4520
2018-07-17T05:49:20.097Z,4712
2018-07-17T05:50:29.651Z,4656
2018-07-17T05:51:39.723Z,5432
2018-07-17T05:52:49.803Z,5256
2018-07-17T05:53:59.855Z,5200
2018-07-17T05:55:09.673Z,6820
2018-07-17T05:56:19.787Z,6008
2018-07-17T05:57:29.875Z,7820
2018-07-17T05:58:39.956Z,10104
2018-07-17T05:59:49.832Z,9656
2018-07-17T06:00:59.907Z,5432
2018-07-17T06:02:09.980Z,5032
2018-07-17T06:03:20.003Z,5236
2018-07-17T06:04:30.234Z,5716
2018-07-17T06:05:40.054Z,7840
2018-07-17T06:06:49.860Z,5620
2018-07-17T06:08:00.046Z,7124
2018-07-17T06:09:10.129Z,5884
2018-07-17T06:10:20.173Z,4828
2018-07-17T06:11:30.400Z,4832
2018-07-17T06:12:40.470Z,5044
2018-07-17T06:13:50.348Z,4896
2018-07-17T06:15:00.422Z,5092
2018-07-17T06:16:10.482Z,5236
2018-07-17T06:17:20.295Z,5956
2018-07-17T06:18:30.368Z,7256
2018-07-17T06:19:40.447Z,9408
2018-07-17T06:20:50.525Z,8496
2018-07-17T06:22:00.721Z,7780
2018-07-17T06:23:10.931Z,5988
2018-07-17T06:24:20.999Z,5564
2018-07-17T06:25:31.110Z,5788
2018-07-17T06:26:41.189Z,5028
2018-07-17T06:27:51.252Z,5072
2018-07-17T06:29:01.338Z,4752
2018-07-17T06:30:11.426Z,4604
2018-07-17T06:31:21.519Z,4656
2018-07-17T06:32:31.592Z,5000
2018-07-17T06:33:41.678Z,5244
2018-07-17T06:34:51.806Z,4468
2018-07-17T06:36:01.884Z,4400
2018-07-17T06:37:11.699Z,4428
2018-07-17T06:38:21.781Z,4836
2018-07-17T06:39:31.321Z,4680
2018-07-17T06:40:41.138Z,6288
2018-07-17T06:41:51.212Z,6108
2018-07-17T06:43:01.305Z,6336
2018-07-17T06:44:11.400Z,6376
2018-07-17T06:45:21.322Z,5392
2018-07-17T06:46:31.399Z,6424
2018-07-17T06:47:41.475Z,7044
2018-07-17T06:48:51.296Z,8124
2018-07-17T06:50:01.364Z,6880
2018-07-17T06:51:11.171Z,7744
2018-07-17T06:52:21.279Z,6844
2018-07-17T06:53:31.096Z,5576
2018-07-17T06:54:41.175Z,5636
2018-07-17T06:55:50.987Z,5576
2018-07-17T06:57:01.058Z,5600
2018-07-17T06:58:10.876Z,5728
2018-07-17T06:59:20.943Z,5856
2018-07-17T07:00:31.035Z,6000
2018-07-17T07:01:41.105Z,6124
2018-07-17T07:02:51.195Z,6288
2018-07-17T07:04:01.264Z,7016
2018-07-17T07:05:11.081Z,6936
2018-07-17T07:06:21.004Z,7020
2018-07-17T07:07:30.595Z,7036
2018-07-17T07:08:40.487Z,6748
2018-07-17T07:09:50.574Z,6580
2018-07-17T07:11:00.649Z,6220
2018-07-17T07:12:10.800Z,6028
2018-07-17T07:13:20.909Z,5936
2018-07-17T07:14:30.996Z,5896
2018-07-17T07:15:41.051Z,5876
2018-07-17T07:16:51.114Z,5892
2018-07-17T07:18:01.275Z,5860
2018-07-17T07:19:11.346Z,5864
2018-07-17T07:20:21.428Z,5980
2018-07-17T07:21:31.510Z,5896
2018-07-17T07:22:41.601Z,5856
2018-07-17T07:23:51.876Z,5756
2018-07-17T07:25:01.950Z,5696
2018-07-17T07:26:12.014Z,5604
2018-07-17T07:27:21.843Z,5472
2018-07-17T07:28:31.909Z,5336
2018-07-17T07:29:42.003Z,5300
2018-07-17T07:30:52.147Z,5236
2018-07-17T07:32:02.377Z,5188
2018-07-17T07:33:12.208Z,5152
2018-07-17T07:34:22.018Z,5092
2018-07-17T07:35:32.131Z,5008
2018-07-17T07:36:42.212Z,4896
2018-07-17T07:37:52.298Z,4808
2018-07-17T07:39:02.424Z,4720
2018-07-17T07:40:12.508Z,4644
2018-07-17T07:41:22.608Z,4564
2018-07-17T07:42:32.701Z,4520
2018-07-17T07:43:42.774Z,4532
2018-07-17T07:44:52.855Z,4580
2018-07-17T07:46:02.676Z,4604
2018-07-17T07:47:12.773Z,4636
2018-07-17T07:48:22.846Z,4676
2018-07-17T07:49:32.741Z,4732
2018-07-17T07:50:42.838Z,4792
2018-07-17T07:51:52.928Z,4848
2018-07-17T07:53:02.728Z,4896
2018-07-17T07:54:12.565Z,4960
2018-07-17T07:55:22.657Z,5044
2018-07-17T07:56:32.736Z,5128
2018-07-17T07:57:42.823Z,5236
2018-07-17T07:58:52.891Z,5328
2018-07-17T08:00:02.991Z,5332
2018-07-17T08:01:13.068Z,5372
2018-07-17T08:02:23.132Z,5420
2018-07-17T08:03:33.238Z,5488
2018-07-17T08:04:43.213Z,5548
2018-07-17T08:05:53.313Z,5692
2018-07-17T08:07:03.399Z,5760
2018-07-17T08:08:13.491Z,5852
2018-07-17T08:09:23.555Z,5948
2018-07-17T08:10:33.634Z,6000
2018-07-17T08:11:43.623Z,6084
2018-07-17T08:12:53.457Z,6180
2018-07-17T08:14:03.564Z,6268
2018-07-17T08:15:13.649Z,6312
2018-07-17T08:16:23.733Z,6340
2018-07-17T08:17:33.561Z,6344
2018-07-17T08:18:43.670Z,6416
2018-07-17T08:19:53.503Z,6276
2018-07-17T08:21:03.584Z,6236
2018-07-17T08:22:13.654Z,6372
2018-07-17T08:23:23.474Z,6368
2018-07-17T08:24:33.838Z,6352
2018-07-17T08:25:43.940Z,6204
2018-07-17T08:26:53.752Z,6160
2018-07-17T08:28:03.825Z,6076
2018-07-17T08:29:13.663Z,5892
2018-07-17T08:30:23.732Z,5836
2018-07-17T08:31:33.813Z,5812
2018-07-17T08:32:43.628Z,5844
2018-07-17T08:33:53.709Z,5892
2018-07-17T08:35:03.590Z,5940
2018-07-17T08:36:13.666Z,6000
2018-07-17T08:37:23.803Z,6072
2018-07-17T08:38:33.636Z,6188
2018-07-17T08:39:43.712Z,6512
2018-07-17T08:40:53.796Z,7088
2018-07-17T08:42:03.899Z,7028
2018-07-17T08:43:14.098Z,7236
2018-07-17T08:44:24.005Z,6544
2018-07-17T08:45:34.124Z,6432
2018-07-17T08:46:44.193Z,6424
2018-07-17T08:47:54.020Z,6384
2018-07-17T08:49:04.166Z,6388
2018-07-17T08:50:14.036Z,6412
2018-07-17T08:51:24.160Z,6688
2018-07-17T08:52:33.976Z,6176
2018-07-17T08:53:43.795Z,5912
2018-07-17T08:54:53.626Z,5700
2018-07-17T08:56:03.446Z,5432
2018-07-17T08:57:13.531Z,5228
2018-07-17T08:58:23.612Z,5060
2018-07-17T08:59:33.710Z,4924
2018-07-17T09:00:43.808Z,4792
2018-07-17T09:01:53.930Z,4688
2018-07-17T09:03:04.001Z,4608
2018-07-17T09:04:14.078Z,4556
2018-07-17T09:05:24.167Z,4524
2018-07-17T09:06:34.000Z,4512
2018-07-17T09:07:43.819Z,4504
2018-07-17T09:08:53.926Z,4532
2018-07-17T09:10:04.084Z,4596
2018-07-17T09:11:14.157Z,4680
2018-07-17T09:12:24.232Z,4768
2018-07-17T09:13:34.304Z,4868
2018-07-17T09:14:44.381Z,4980
2018-07-17T09:15:54.471Z,5088
2018-07-17T09:17:04.558Z,5176
2018-07-17T09:18:14.657Z,5272
2018-07-17T09:19:24.737Z,5364
2018-07-17T09:20:34.572Z,5444
2018-07-17T09:21:44.935Z,5528
2018-07-17T09:22:55.021Z,5620
2018-07-17T09:24:04.565Z,5720
2018-07-17T09:25:14.654Z,5820
2018-07-17T09:26:24.479Z,5936
2018-07-17T09:27:34.313Z,6048
2018-07-17T09:28:44.398Z,6132
2018-07-17T09:29:54.531Z,6180
2018-07-17T09:31:04.613Z,6172
2018-07-17T09:32:14.688Z,6200
2018-07-17T09:33:24.557Z,6088
2018-07-17T09:34:34.662Z,6016
2018-07-17T09:35:44.738Z,5980
2018-07-17T09:36:54.304Z,5908
2018-07-17T09:38:04.472Z,5848
2018-07-17T09:39:14.709Z,5736
2018-07-17T09:40:24.903Z,5684
2018-07-17T09:41:34.453Z,5476
2018-07-17T09:42:44.548Z,5296
2018-07-17T09:43:54.378Z,5080
2018-07-17T09:45:04.471Z,4856
2018-07-17T09:46:14.297Z,4648
2018-07-17T09:47:24.403Z,4512
2018-07-17T09:48:34.471Z,4256
2018-07-17T09:49:44.547Z,5016
2018-07-17T09:50:54.669Z,4020
2018-07-17T09:52:04.749Z,4860
2018-07-17T09:53:14.574Z,6312
2018-07-17T09:54:24.946Z,3992
2018-07-17T09:55:35.339Z,4000
2018-07-17T09:56:45.699Z,5200
2018-07-17T09:57:55.798Z,6268
2018-07-17T09:59:05.876Z,6160
2018-07-17T10:00:15.682Z,6008
2018-07-17T10:01:25.775Z,6104
2018-07-17T10:02:35.665Z,6036
2018-07-17T10:03:45.487Z,6080
2018-07-17T10:04:55.581Z,6084
2018-07-17T10:06:05.672Z,6116
2018-07-17T10:07:15.781Z,6148
2018-07-17T10:08:25.657Z,6204
2018-07-17T10:09:36.142Z,6212
2018-07-17T10:10:46.370Z,6280
2018-07-17T10:11:56.992Z,6332
2018-07-17T10:13:07.148Z,6392
2018-07-17T10:14:17.232Z,6476
2018-07-17T10:15:27.324Z,6560
2018-07-17T10:16:37.153Z,6656
2018-07-17T10:17:46.984Z,6736
2018-07-17T10:18:57.069Z,6772
2018-07-17T10:20:07.745Z,6892
2018-07-17T10:21:17.665Z,6968
2018-07-17T10:22:27.225Z,7072
2018-07-17T10:23:37.313Z,7176
2018-07-17T10:24:47.171Z,7312
2018-07-17T10:25:57.319Z,7404
2018-07-17T10:27:07.411Z,7504
2018-07-17T10:28:17.235Z,7548
2018-07-17T10:29:27.343Z,7780
2018-07-17T10:30:37.437Z,7952
2018-07-17T10:31:47.523Z,7960
2018-07-17T10:32:57.632Z,7988
2018-07-17T10:34:07.171Z,7948
2018-07-17T10:35:17.004Z,7972
2018-07-17T10:36:27.101Z,8060
2018-07-17T10:37:37.236Z,8028
2018-07-17T10:38:47.685Z,7840
2018-07-17T10:39:57.761Z,7940
2018-07-17T10:41:07.879Z,7324
2018-07-17T10:42:17.966Z,5676
2018-07-17T10:43:28.055Z,5748
2018-07-17T10:44:38.132Z,5092
2018-07-17T10:45:47.953Z,4944
2018-07-17T10:46:58.017Z,5884
2018-07-17T10:48:07.845Z,6548
2018-07-17T10:49:18.039Z,6924
2018-07-17T10:50:28.133Z,7060
2018-07-17T10:51:38.230Z,7000
2018-07-17T10:52:48.320Z,7020
2018-07-17T10:53:58.444Z,6940
2018-07-17T10:55:08.646Z,6808
2018-07-17T10:56:18.721Z,6744
2018-07-17T10:57:28.806Z,6672
2018-07-17T10:58:38.889Z,6716
2018-07-17T10:59:48.972Z,6640
2018-07-17T11:00:59.024Z,6596
2018-07-17T11:02:09.234Z,5424
2018-07-17T11:03:19.313Z,5296
2018-07-17T11:04:29.392Z,4124
2018-07-17T11:05:39.206Z,3616
2018-07-17T11:06:49.034Z,4396
2018-07-17T11:07:58.848Z,4456
2018-07-17T11:09:08.935Z,4484
2018-07-17T11:10:19.022Z,5848
2018-07-17T11:11:28.838Z,6312
2018-07-17T11:12:38.678Z,6484
2018-07-17T11:13:48.784Z,6796
2018-07-17T11:14:58.894Z,7312
2018-07-17T11:16:08.714Z,7492
2018-07-17T11:17:18.524Z,7668
2018-07-17T11:18:28.129Z,7796
2018-07-17T11:19:38.209Z,7944
2018-07-17T11:20:48.310Z,8212
2018-07-17T11:21:58.403Z,8588
2018-07-17T11:23:08.238Z,8604
2018-07-17T11:24:18.067Z,8740
2018-07-17T11:25:27.893Z,8572
2018-07-17T11:26:37.721Z,8656
2018-07-17T11:27:47.802Z,7700
2018-07-17T11:28:57.599Z,8684
2018-07-17T11:30:07.675Z,8728
2018-07-17T11:31:17.765Z,8524
2018-07-17T11:32:27.588Z,8460
2018-07-17T11:33:37.686Z,8316
2018-07-17T11:34:47.518Z,5124
2018-07-17T11:35:57.397Z,5232
2018-07-17T11:37:07.473Z,7716
2018-07-17T11:38:17.551Z,7600
2018-07-17T11:39:27.376Z,7608
2018-07-17T11:40:37.209Z,7520
2018-07-17T11:41:47.298Z,7488
2018-07-17T11:42:57.405Z,7300
2018-07-17T11:44:07.216Z,7372
2018-07-17T11:45:17.054Z,7376
2018-07-17T11:46:26.885Z,7424
2018-07-17T11:47:36.969Z,7440
2018-07-17T11:48:47.121Z,7428
2018-07-17T11:49:57.242Z,7328
2018-07-17T11:51:07.315Z,7096
2018-07-17T11:52:17.452Z,6992
2018-07-17T11:53:27.527Z,7016
2018-07-17T11:54:37.652Z,7064
2018-07-17T11:55:47.219Z,7076
2018-07-17T11:56:57.325Z,7132
2018-07-17T11:58:07.481Z,7128
2018-07-17T11:59:18.222Z,7012
2018-07-17T12:00:28.536Z,7056
2018-07-17T12:01:38.348Z,7216
2018-07-17T12:02:48.173Z,7552
2018-07-17T12:03:58.316Z,7880
2018-07-17T12:05:08.404Z,7872
2018-07-17T12:06:18.493Z,8172
2018-07-17T12:07:28.334Z,7276
2018-07-17T12:08:38.463Z,7076
2018-07-17T12:09:48.341Z,8388
2018-07-17T12:10:58.425Z,8196
2018-07-17T12:12:08.523Z,8008
2018-07-17T12:13:18.618Z,7588
2018-07-17T12:14:28.739Z,7364
2018-07-17T12:15:38.823Z,6592
2018-07-17T12:16:48.886Z,4816
2018-07-17T12:17:58.965Z,2560
2018-07-17T12:19:09.056Z,2332
2018-07-17T12:20:19.837Z,2232
2018-07-17T12:21:30.229Z,2148
2018-07-17T12:22:40.308Z,2056
2018-07-17T12:23:50.374Z,1880
2018-07-17T12:25:00.556Z,1728
2018-07-17T12:26:10.632Z,1556
2018-07-17T12:27:20.769Z,1400
2018-07-17T12:28:30.860Z,1296
2018-07-17T12:29:40.967Z,1224
2018-07-17T12:30:51.147Z,1232
2018-07-17T12:32:01.220Z,1292
2018-07-17T12:33:11.306Z,1380
2018-07-17T12:34:21.379Z,1596
2018-07-17T12:35:30.945Z,1900
2018-07-17T12:36:41.069Z,2240
2018-07-17T12:37:51.156Z,2420
2018-07-17T12:39:01.235Z,2376
2018-07-17T12:40:11.335Z,2124
2018-07-17T12:41:21.405Z,1804
2018-07-17T12:42:31.490Z,1612
2018-07-17T12:43:41.565Z,1484
2018-07-17T12:44:51.396Z,1472
2018-07-17T12:46:01.537Z,1568
2018-07-17T12:47:11.629Z,1748
2018-07-17T12:48:21.710Z,2192
2018-07-17T12:49:31.530Z,2732
2018-07-17T12:50:41.610Z,3116
2018-07-17T12:51:51.672Z,3588
2018-07-17T12:53:01.752Z,3796
2018-07-17T12:54:11.840Z,3880
2018-07-17T12:55:21.926Z,4224
2018-07-17T12:56:32.282Z,4560
2018-07-17T12:57:42.422Z,4984
2018-07-17T12:58:52.503Z,5572
2018-07-17T13:00:02.317Z,5988
2018-07-17T13:01:12.416Z,6364
2018-07-17T13:02:22.491Z,6596
2018-07-17T13:03:32.310Z,6512
2018-07-17T13:04:42.116Z,6080
2018-07-17T13:05:52.004Z,5856
2018-07-17T13:07:01.850Z,5756
2018-07-17T13:08:11.670Z,5760
2018-07-17T13:09:22.042Z,5872
2018-07-17T13:10:32.239Z,6168
2018-07-17T13:11:42.414Z,6956
2018-07-17T13:12:52.246Z,6640
2018-07-17T13:14:02.063Z,6708
2018-07-17T13:15:12.183Z,6416
2018-07-17T13:16:22.265Z,6268
2018-07-17T13:17:32.811Z,6140
2018-07-17T13:18:43.110Z,5944
2018-07-17T13:19:53.189Z,5632
2018-07-17T13:21:03.290Z,5248
2018-07-17T13:22:13.109Z,4796
2018-07-17T13:23:22.656Z,4496
2018-07-17T13:24:32.488Z,4128
2018-07-17T13:25:42.589Z,3688
2018-07-17T13:26:52.726Z,3004
2018-07-17T13:28:02.800Z,2296
2018-07-17T13:29:12.888Z,1780
2018-07-17T13:30:22.960Z,1416
2018-07-17T13:31:33.071Z,1140
2018-07-17T13:32:42.908Z,948
2018-07-17T13:33:53.004Z,820
2018-07-17T13:35:03.112Z,760
2018-07-17T13:36:13.254Z,752
2018-07-17T13:37:23.355Z,804
2018-07-17T13:38:33.161Z,888
2018-07-17T13:39:43.248Z,1000
2018-07-17T13:40:53.362Z,1152
2018-07-17T13:42:03.163Z,1264
2018-07-17T13:43:13.252Z,1320
2018-07-17T13:44:23.060Z,1192
2018-07-17T13:45:33.164Z,1136
2018-07-17T13:46:42.993Z,1220
2018-07-17T13:47:53.092Z,1448
2018-07-17T13:49:02.914Z,1756
2018-07-17T13:50:13.013Z,2272
2018-07-17T13:51:23.086Z,3204
2018-07-17T13:52:33.193Z,4092
2018-07-17T13:53:43.293Z,4428
2018-07-17T13:54:53.374Z,4268
2018-07-17T13:56:03.539Z,3704
2018-07-17T13:57:13.635Z,2824
2018-07-17T13:58:23.445Z,2044
2018-07-17T13:59:33.514Z,1532
2018-07-17T14:00:43.351Z,1156
2018-07-17T14:01:53.249Z,908
2018-07-17T14:03:03.343Z,728
2018-07-17T14:04:13.183Z,608
2018-07-17T14:05:23.286Z,548
2018-07-17T14:06:33.367Z,516
2018-07-17T14:07:43.514Z,504
2018-07-17T14:08:53.637Z,504
2018-07-17T14:10:03.222Z,508
2018-07-17T14:11:13.038Z,520
2018-07-17T14:12:23.048Z,544
2018-07-17T14:13:33.386Z,584
2018-07-17T14:14:43.495Z,632
2018-07-17T14:15:53.319Z,676
2018-07-17T14:17:03.143Z,716
2018-07-17T14:18:13.222Z,788
2018-07-17T14:19:23.346Z,912
2018-07-17T14:20:33.514Z,1060
2018-07-17T14:21:43.592Z,1196
2018-07-17T14:22:53.423Z,1316
2018-07-17T14:24:03.247Z,1396
2018-07-17T14:25:13.388Z,1456
2018-07-17T14:26:23.489Z,1516
2018-07-17T14:27:33.575Z,1556
2018-07-17T14:28:43.658Z,1544
2018-07-17T14:29:53.754Z,1464
2018-07-17T14:31:03.886Z,1348
2018-07-17T14:32:13.996Z,1236
2018-07-17T14:33:24.054Z,1132
2018-07-17T14:34:33.908Z,1056
2018-07-17T14:35:44.069Z,1004
2018-07-17T14:36:54.273Z,968
2018-07-17T14:38:04.386Z,952
2018-07-17T14:39:14.195Z,956
2018-07-17T14:40:24.271Z,980
2018-07-17T14:41:34.469Z,1028
2018-07-17T14:42:44.878Z,1092
2018-07-17T14:43:54.701Z,1164
2018-07-17T14:45:04.799Z,1236
2018-07-17T14:46:14.854Z,1316
2018-07-17T14:47:24.694Z,1400
2018-07-17T14:48:34.789Z,1480
2018-07-17T14:49:44.970Z,1576
2018-07-17T14:50:55.076Z,1688
2018-07-17T14:52:05.189Z,1824
2018-07-17T14:53:15.246Z,1964
2018-07-17T14:54:25.060Z,2104
2018-07-17T14:55:35.122Z,2232
2018-07-17T14:56:44.934Z,2348
2018-07-17T14:57:55.037Z,2452
2018-07-17T14:59:04.850Z,2568
2018-07-17T15:00:15.220Z,2696
2018-07-17T15:01:25.587Z,2808
2018-07-17T15:02:35.423Z,2872
2018-07-17T15:03:45.503Z,2940
2018-07-17T15:04:55.585Z,3096
2018-07-17T15:06:05.683Z,3232
2018-07-17T15:07:15.490Z,3348
2018-07-17T15:08:25.300Z,3456
2018-07-17T15:09:35.620Z,3492
2018-07-17T15:10:45.759Z,3476
2018-07-17T15:11:55.943Z,3460
2018-07-17T15:13:06.116Z,3476
2018-07-17T15:14:16.189Z,3464
2018-07-17T15:15:26.326Z,3464
2018-07-17T15:16:36.535Z,3464
2018-07-17T15:17:46.682Z,3472
2018-07-17T15:18:56.835Z,3456
2018-07-17T15:20:06.917Z,3416
2018-07-17T15:21:16.745Z,3356
2018-07-17T15:22:27.126Z,3312
2018-07-17T15:23:37.358Z,3300
2018-07-17T15:24:47.440Z,3252
2018-07-17T15:25:57.521Z,3168
2018-07-17T15:27:07.343Z,3064
2018-07-17T15:28:17.774Z,2944
2018-07-17T15:29:27.596Z,2864
2018-07-17T15:30:37.412Z,2804
2018-07-17T15:31:47.492Z,2724
2018-07-17T15:32:57.323Z,2616
2018-07-17T15:34:06.871Z,2504
2018-07-17T15:35:17.309Z,2384
2018-07-17T15:36:27.433Z,2240
2018-07-17T15:37:37.530Z,2120
2018-07-17T15:38:47.336Z,2032
2018-07-17T15:39:57.158Z,1976
2018-07-17T15:41:07.057Z,1916
2018-07-17T15:42:16.880Z,1864
2018-07-17T15:43:26.970Z,1816
2018-07-17T15:44:37.049Z,1756
2018-07-17T15:45:47.100Z,1660
2018-07-17T15:46:56.951Z,1572
2018-07-17T15:48:07.068Z,1460
2018-07-17T15:49:17.177Z,1284
2018-07-17T15:50:27.288Z,1128
2018-07-17T15:51:37.120Z,1016
2018-07-17T15:52:47.193Z,948
2018-07-17T15:53:57.278Z,904
2018-07-17T15:55:07.459Z,884
2018-07-17T15:56:17.549Z,884
2018-07-17T15:57:27.645Z,896
2018-07-17T15:58:37.781Z,928
2018-07-17T15:59:48.020Z,968
2018-07-17T16:00:58.213Z,1020
2018-07-17T16:02:08.305Z,1080
2018-07-17T16:03:18.153Z,1148
2018-07-17T16:04:28.227Z,1204
2018-07-17T16:05:38.035Z,1256
2018-07-17T16:06:48.140Z,1324
2018-07-17T16:07:58.233Z,1388
2018-07-17T16:09:08.320Z,1440
2018-07-17T16:10:18.426Z,1464
2018-07-17T16:11:28.506Z,1484
2018-07-17T16:12:38.580Z,1528
2018-07-17T16:13:49.486Z,1616
2018-07-17T16:14:59.965Z,1756
2018-07-17T16:16:09.813Z,1932
2018-07-17T16:17:19.914Z,2092
2018-07-17T16:18:30.002Z,2172
2018-07-17T16:19:40.105Z,2200
2018-07-17T16:20:49.946Z,2216
2018-07-17T16:22:00.104Z,2212
2018-07-17T16:23:09.675Z,2184